createdAt,value
2023-05-08T00:01:33.822Z,12.74
2023-05-08T00:04:02.900Z,12.67
2023-05-08T00:06:31.101Z,12.64
2023-05-08T00:08:57.888Z,12.67
2023-05-08T00:11:28.824Z,12.53
2023-05-08T00:13:57.198Z,12.58
2023-05-08T00:16:24.153Z,12.52
2023-05-08T00:18:50.941Z,12.51
2023-05-08T00:21:18.751Z,12.48
2023-05-08T00:23:45.557Z,12.43
2023-05-08T00:26:12.292Z,12.37
2023-05-08T00:28:39.136Z,12.44
2023-05-08T00:31:06.793Z,12.28
2023-05-08T00:33:34.491Z,12.44
2023-05-08T00:36:03.742Z,12.40
2023-05-08T00:38:32.717Z,12.42
2023-05-08T00:41:03.444Z,12.35
2023-05-08T00:43:30.096Z,12.34
2023-05-08T00:45:59.608Z,12.22
2023-05-08T00:48:36.456Z,12.26
2023-05-08T00:51:08.499Z,12.26
2023-05-08T00:53:42.980Z,12.22
2023-05-08T00:56:19.513Z,12.23
2023-05-08T00:58:49.281Z,12.22
2023-05-08T01:01:16.305Z,12.17
2023-05-08T01:03:44.697Z,12.06
2023-05-08T01:06:12.095Z,12.10
2023-05-08T01:08:41.144Z,12.01
2023-05-08T01:11:23.577Z,12.09
2023-05-08T01:13:57.951Z,12.07
2023-05-08T01:16:51.913Z,12.04
2023-05-08T01:19:37.617Z,12.01
2023-05-08T01:22:04.332Z,12.00
2023-05-08T01:24:51.902Z,12.02
2023-05-08T01:27:40.872Z,11.99
2023-05-08T01:30:45.851Z,11.95
2023-05-08T01:33:46.217Z,11.91
2023-05-08T01:36:31.410Z,11.91
2023-05-08T01:39:19.374Z,11.86
2023-05-08T01:42:05.973Z,11.82
2023-05-08T01:44:38.056Z,11.85
2023-05-08T01:47:10.090Z,11.79
2023-05-08T01:49:49.330Z,11.80
2023-05-08T01:52:21.505Z,11.78
2023-05-08T01:55:24.741Z,11.69
2023-05-08T01:57:55.065Z,11.74
2023-05-08T02:00:24.082Z,11.70
2023-05-08T02:02:52.712Z,11.72
2023-05-08T02:05:22.830Z,11.69
2023-05-08T02:07:51.957Z,11.66
2023-05-08T02:10:20.418Z,11.67
2023-05-08T02:12:48.873Z,11.63
2023-05-08T02:15:17.519Z,11.62
2023-05-08T02:17:51.608Z,11.61
2023-05-08T02:20:20.235Z,11.61
2023-05-08T02:22:51.677Z,11.60
2023-05-08T02:25:19.967Z,11.59
2023-05-08T02:27:58.846Z,11.54
2023-05-08T02:30:26.704Z,11.57
2023-05-08T02:32:59.739Z,11.55
2023-05-08T02:35:31.077Z,11.54
2023-05-08T02:37:59.694Z,11.52
2023-05-08T02:40:29.388Z,11.43
2023-05-08T02:42:56.814Z,11.50
2023-05-08T02:45:32.718Z,11.45
2023-05-08T02:48:20.492Z,11.47
2023-05-08T02:51:21.511Z,11.43
2023-05-08T02:53:56.875Z,11.38
2023-05-08T02:57:01.096Z,11.39
2023-05-08T02:59:36.905Z,11.34
2023-05-08T03:02:16.382Z,11.36
2023-05-08T03:04:52.350Z,11.35
2023-05-08T03:07:23.108Z,11.29
2023-05-08T03:09:59.081Z,11.34
2023-05-08T03:12:29.200Z,11.30
2023-05-08T03:15:36.770Z,11.31
2023-05-08T03:18:08.319Z,11.35
2023-05-08T03:20:40.020Z,11.34
2023-05-08T03:23:11.080Z,11.39
2023-05-08T03:25:40.152Z,11.45
2023-05-08T03:28:07.674Z,11.51
2023-05-08T03:30:37.343Z,11.61
2023-05-08T03:33:05.744Z,11.70
2023-05-08T03:35:35.158Z,11.74
2023-05-08T03:38:02.754Z,11.74
2023-05-08T03:40:29.626Z,11.88
2023-05-08T03:42:56.696Z,11.96
2023-05-08T03:45:26.956Z,11.97
2023-05-08T03:47:54.218Z,12.07
2023-05-08T03:50:22.981Z,12.06
2023-05-08T03:52:50.556Z,12.07
2023-05-08T03:55:19.811Z,12.09
2023-05-08T03:57:57.245Z,12.18
2023-05-08T04:00:37.616Z,12.13
2023-05-08T04:03:20.210Z,12.19
2023-05-08T04:06:12.825Z,12.21
2023-05-08T04:08:45.696Z,12.20
2023-05-08T04:11:23.481Z,12.25
2023-05-08T04:13:57.782Z,12.28
2023-05-08T04:16:27.132Z,12.34
2023-05-08T04:19:07.690Z,12.33
2023-05-08T04:21:36.548Z,12.32
2023-05-08T04:24:10.911Z,12.30
2023-05-08T04:26:41.959Z,12.29
2023-05-08T04:29:09.786Z,12.26
2023-05-08T04:31:38.528Z,12.30
2023-05-08T04:34:06.600Z,12.29
2023-05-08T04:36:34.032Z,12.35
2023-05-08T04:39:00.938Z,12.33
2023-05-08T04:41:27.610Z,12.39
2023-05-08T04:43:54.755Z,12.48
2023-05-08T04:46:21.566Z,12.41
2023-05-08T04:48:49.571Z,12.45
2023-05-08T04:51:21.735Z,12.44
2023-05-08T04:53:48.630Z,12.46
2023-05-08T04:56:15.531Z,12.39
2023-05-08T04:58:43.253Z,12.46
2023-05-08T05:01:10.312Z,12.52
2023-05-08T05:03:37.322Z,12.53
2023-05-08T05:06:04.994Z,12.54
2023-05-08T05:08:32.366Z,12.57
2023-05-08T05:10:59.210Z,12.52
2023-05-08T05:13:27.102Z,12.57
2023-05-08T05:15:58.977Z,12.63
2023-05-08T05:18:25.577Z,12.67
2023-05-08T05:20:53.630Z,12.78
2023-05-08T05:23:20.898Z,12.78
2023-05-08T05:25:51.835Z,12.88
2023-05-08T05:28:45.800Z,12.75
2023-05-08T05:31:15.815Z,13.01
2023-05-08T05:33:43.025Z,13.01
2023-05-08T05:36:09.657Z,12.98
2023-05-08T05:38:37.374Z,13.04
2023-05-08T05:41:07.725Z,13.10
2023-05-08T05:43:34.395Z,13.06
2023-05-08T05:46:08.326Z,13.09
2023-05-08T05:48:36.453Z,13.15
2023-05-08T05:51:05.963Z,13.17
2023-05-08T05:53:32.534Z,13.22
2023-05-08T05:55:59.634Z,13.25
2023-05-08T05:58:26.492Z,13.35
2023-05-08T06:00:53.341Z,13.36
2023-05-08T06:03:21.842Z,13.40
2023-05-08T06:05:48.759Z,13.47
2023-05-08T06:08:18.113Z,13.50
2023-05-08T06:10:44.935Z,13.52
2023-05-08T06:13:11.884Z,13.56
2023-05-08T06:15:38.656Z,13.63
2023-05-08T06:18:06.305Z,13.68
2023-05-08T06:20:33.050Z,13.69
2023-05-08T06:22:59.804Z,13.73
2023-05-08T06:25:28.159Z,13.74
2023-05-08T06:27:55.220Z,13.75
2023-05-08T06:30:21.938Z,13.81
2023-05-08T06:32:48.663Z,13.82
2023-05-08T06:35:19.274Z,13.94
2023-05-08T06:37:49.171Z,13.95
2023-05-08T06:40:23.945Z,13.93
2023-05-08T06:42:50.761Z,13.93
2023-05-08T06:45:17.497Z,14.00
2023-05-08T06:47:44.217Z,14.06
2023-05-08T06:50:12.305Z,14.04
2023-05-08T06:52:39.152Z,14.11
2023-05-08T06:55:06.463Z,14.08
2023-05-08T06:57:33.378Z,14.21
2023-05-08T07:00:00.403Z,14.23
2023-05-08T07:02:30.461Z,14.42
2023-05-08T07:04:57.336Z,14.42
2023-05-08T07:07:24.145Z,14.33
2023-05-08T07:09:50.838Z,14.32
2023-05-08T07:12:17.515Z,14.39
2023-05-08T07:14:44.260Z,14.44
2023-05-08T07:17:12.231Z,14.52
2023-05-08T07:19:39.073Z,14.52
2023-05-08T07:22:06.546Z,14.61
2023-05-08T07:24:33.360Z,14.56
2023-05-08T07:27:00.276Z,14.54
2023-05-08T07:29:30.321Z,14.65
2023-05-08T07:31:59.437Z,14.58
2023-05-08T07:34:26.228Z,14.52
2023-05-08T07:36:52.970Z,14.65
2023-05-08T07:39:21.065Z,14.61
2023-05-08T07:41:49.722Z,14.71
2023-05-08T07:44:16.941Z,14.63
2023-05-08T07:46:44.061Z,14.75
2023-05-08T07:49:13.257Z,14.81
2023-05-08T07:51:41.387Z,14.77
2023-05-08T07:54:08.555Z,14.58
2023-05-08T07:56:35.429Z,14.76
2023-05-08T07:59:02.071Z,14.81
2023-05-08T08:01:33.954Z,14.73
2023-05-08T08:04:01.049Z,14.75
2023-05-08T08:06:29.921Z,14.70
2023-05-08T08:08:56.504Z,14.79
2023-05-08T08:11:23.765Z,14.81
2023-05-08T08:13:50.623Z,14.76
2023-05-08T08:16:17.170Z,14.83
2023-05-08T08:18:43.864Z,14.83
2023-05-08T08:21:14.409Z,14.83
2023-05-08T08:23:43.379Z,14.82
2023-05-08T08:26:10.481Z,14.93
2023-05-08T08:28:37.907Z,15.00
2023-05-08T08:31:07.002Z,15.13
2023-05-08T08:33:33.834Z,15.22
2023-05-08T08:36:00.448Z,15.43
2023-05-08T08:38:27.414Z,15.51
2023-05-08T08:40:55.098Z,15.61
2023-05-08T08:43:22.303Z,15.54
2023-05-08T08:45:49.037Z,15.70
2023-05-08T08:48:17.752Z,15.80
2023-05-08T08:50:47.539Z,15.76
2023-05-08T08:53:19.468Z,15.75
2023-05-08T08:55:47.373Z,15.70
2023-05-08T08:58:34.650Z,15.73
2023-05-08T09:01:04.286Z,15.77
2023-05-08T09:03:32.357Z,15.77
2023-05-08T09:06:04.645Z,15.73
2023-05-08T09:08:34.692Z,15.82
2023-05-08T09:11:03.708Z,15.84
2023-05-08T09:13:31.069Z,15.76
2023-05-08T09:15:59.929Z,15.70
2023-05-08T09:18:29.492Z,15.81
2023-05-08T09:20:57.123Z,15.85
2023-05-08T09:23:24.228Z,15.73
2023-05-08T09:25:51.014Z,15.79
2023-05-08T09:28:19.495Z,15.96
2023-05-08T09:30:56.285Z,16.05
2023-05-08T09:33:29.065Z,16.11
2023-05-08T09:35:57.066Z,16.16
2023-05-08T09:38:37.195Z,16.19
2023-05-08T09:41:15.986Z,16.28
2023-05-08T09:43:45.023Z,16.22
2023-05-08T09:46:24.535Z,16.32
2023-05-08T09:48:54.057Z,16.43
2023-05-08T09:51:22.274Z,16.33
2023-05-08T09:53:53.480Z,16.45
2023-05-08T09:56:47.535Z,16.40
2023-05-08T09:59:30.857Z,16.57
2023-05-08T10:01:59.617Z,16.58
2023-05-08T10:04:37.995Z,16.76
2023-05-08T10:07:07.584Z,16.83
2023-05-08T10:09:46.829Z,16.78
2023-05-08T10:12:17.180Z,16.86
2023-05-08T10:14:46.488Z,16.94
2023-05-08T10:17:22.235Z,17.01
2023-05-08T10:19:55.102Z,16.98
2023-05-08T10:22:25.153Z,16.93
2023-05-08T10:24:57.847Z,16.90
2023-05-08T10:27:33.633Z,16.88
2023-05-08T10:30:04.652Z,16.90
2023-05-08T10:32:40.744Z,16.87
2023-05-08T10:35:10.957Z,16.78
2023-05-08T10:37:39.528Z,16.92
2023-05-08T10:40:07.256Z,16.95
2023-05-08T10:42:38.207Z,16.93
2023-05-08T10:45:06.137Z,16.95
2023-05-08T10:47:46.292Z,16.77
2023-05-08T10:50:16.430Z,16.90
2023-05-08T10:53:14.291Z,16.99
2023-05-08T10:55:44.637Z,17.10
2023-05-08T10:58:30.300Z,17.13
2023-05-08T11:01:00.182Z,17.17
2023-05-08T11:03:32.786Z,17.08
2023-05-08T11:06:02.129Z,17.03
2023-05-08T11:08:31.742Z,17.25
2023-05-08T11:11:02.127Z,17.26
2023-05-08T11:13:41.848Z,17.19
2023-05-08T11:16:13.128Z,17.11
2023-05-08T11:19:18.569Z,17.19
2023-05-08T11:22:16.820Z,17.22
2023-05-08T11:25:01.812Z,17.35
2023-05-08T11:27:35.946Z,17.34
2023-05-08T11:30:23.632Z,17.44
2023-05-08T11:33:19.364Z,17.40
2023-05-08T11:35:58.236Z,17.43
2023-05-08T11:38:38.717Z,17.49
2023-05-08T11:41:08.783Z,17.58
2023-05-08T11:43:37.494Z,17.66
2023-05-08T11:46:14.748Z,17.79
2023-05-08T11:48:42.081Z,17.79
2023-05-08T11:51:09.781Z,17.81
2023-05-08T11:53:37.915Z,17.86
2023-05-08T11:56:10.838Z,17.92
2023-05-08T11:58:42.469Z,17.92
2023-05-08T12:01:09.226Z,17.95
2023-05-08T12:03:36.059Z,17.98
2023-05-08T12:06:03.572Z,17.97
2023-05-08T12:08:30.582Z,17.98
2023-05-08T12:10:58.228Z,17.93
2023-05-08T12:13:27.344Z,17.91
2023-05-08T12:15:59.769Z,17.97
2023-05-08T12:18:31.993Z,18.11
2023-05-08T12:21:01.353Z,18.21
2023-05-08T12:23:34.178Z,18.37
2023-05-08T12:26:02.261Z,18.55
2023-05-08T12:28:29.539Z,18.79
2023-05-08T12:30:56.530Z,19.06
2023-05-08T12:33:24.045Z,19.24
2023-05-08T12:35:50.957Z,19.39
2023-05-08T12:38:17.747Z,19.61
2023-05-08T12:40:46.706Z,19.46
2023-05-08T12:43:13.759Z,19.54
2023-05-08T12:45:42.347Z,19.59
2023-05-08T12:48:16.106Z,19.84
2023-05-08T12:50:46.320Z,20.01
2023-05-08T12:53:14.925Z,20.24
2023-05-08T12:55:57.832Z,20.22
2023-05-08T12:58:27.921Z,20.27
2023-05-08T13:01:05.022Z,20.31
2023-05-08T13:03:33.576Z,20.27
2023-05-08T13:06:00.497Z,20.18
2023-05-08T13:08:32.267Z,20.08
2023-05-08T13:11:01.267Z,19.73
2023-05-08T13:13:31.786Z,19.67
2023-05-08T13:16:02.417Z,19.66
2023-05-08T13:18:33.790Z,19.66
2023-05-08T13:21:02.382Z,19.67
2023-05-08T13:23:31.052Z,19.63
2023-05-08T13:26:00.846Z,19.66
2023-05-08T13:28:32.408Z,19.64
2023-05-08T13:31:02.256Z,19.62
2023-05-08T13:33:29.001Z,19.63
2023-05-08T13:35:56.840Z,19.71
2023-05-08T13:38:27.661Z,19.86
2023-05-08T13:40:54.917Z,19.90
2023-05-08T13:43:22.995Z,20.08
2023-05-08T13:45:49.861Z,20.18
2023-05-08T13:48:20.588Z,20.31
2023-05-08T13:50:47.603Z,20.42
2023-05-08T13:53:14.590Z,20.38
2023-05-08T13:55:43.724Z,20.47
2023-05-08T13:58:10.526Z,20.52
2023-05-08T14:00:37.281Z,20.48
2023-05-08T14:03:05.046Z,20.56
2023-05-08T14:05:32.263Z,20.54
2023-05-08T14:08:01.716Z,20.50
2023-05-08T14:10:33.736Z,20.49
2023-05-08T14:13:00.440Z,20.26
2023-05-08T14:15:34.814Z,20.11
2023-05-08T14:18:04.442Z,20.18
2023-05-08T14:20:31.474Z,20.41
2023-05-08T14:23:00.048Z,20.48
2023-05-08T14:25:27.487Z,20.70
2023-05-08T14:27:54.386Z,20.75
2023-05-08T14:30:21.171Z,20.75
2023-05-08T14:32:50.282Z,20.78
2023-05-08T14:35:18.528Z,20.76
2023-05-08T14:37:45.625Z,20.68
2023-05-08T14:40:13.186Z,20.71
2023-05-08T14:42:41.293Z,20.63
2023-05-08T14:45:13.030Z,20.57
2023-05-08T14:47:40.477Z,20.41
2023-05-08T14:50:07.758Z,20.51
2023-05-08T14:52:34.730Z,20.60
2023-05-08T14:55:02.157Z,20.55
2023-05-08T14:57:29.432Z,20.55
2023-05-08T14:59:57.595Z,20.54
2023-05-08T15:02:24.356Z,20.56
2023-05-08T15:04:51.312Z,20.58
2023-05-08T15:07:19.376Z,20.62
2023-05-08T15:09:49.226Z,20.67
2023-05-08T15:12:16.247Z,20.70
2023-05-08T15:14:45.983Z,20.71
2023-05-08T15:17:15.554Z,20.75
2023-05-08T15:19:42.916Z,20.62
2023-05-08T15:22:10.650Z,20.46
2023-05-08T15:24:37.378Z,20.62
2023-05-08T15:27:04.633Z,20.50
2023-05-08T15:29:32.729Z,20.41
2023-05-08T15:31:59.364Z,20.10
2023-05-08T15:34:29.099Z,19.58
2023-05-08T15:36:59.174Z,19.52
2023-05-08T15:39:26.172Z,18.93
2023-05-08T15:41:52.697Z,18.80
2023-05-08T15:44:19.817Z,18.55
2023-05-08T15:46:46.664Z,18.39
2023-05-08T15:49:13.317Z,18.24
2023-05-08T15:51:40.376Z,18.20
2023-05-08T15:54:07.421Z,18.10
2023-05-08T15:56:37.341Z,18.07
2023-05-08T15:59:04.309Z,17.96
2023-05-08T16:01:31.141Z,17.88
2023-05-08T16:03:58.257Z,17.84
2023-05-08T16:06:24.938Z,17.98
2023-05-08T16:08:51.963Z,17.77
2023-05-08T16:11:20.027Z,17.56
2023-05-08T16:13:48.219Z,17.56
2023-05-08T16:16:14.934Z,17.57
2023-05-08T16:18:41.868Z,17.61
2023-05-08T16:21:10.308Z,17.40
2023-05-08T16:23:37.671Z,17.41
2023-05-08T16:26:05.081Z,17.57
2023-05-08T16:28:31.925Z,17.52
2023-05-08T16:30:59.266Z,17.47
2023-05-08T16:33:26.284Z,17.42
2023-05-08T16:35:53.241Z,17.47
2023-05-08T16:38:22.689Z,17.55
2023-05-08T16:40:50.789Z,17.45
2023-05-08T16:43:17.800Z,17.66
2023-05-08T16:45:44.988Z,17.70
2023-05-08T16:48:12.139Z,17.76
2023-05-08T16:50:38.819Z,17.64
2023-05-08T16:53:06.528Z,17.86
2023-05-08T16:55:33.703Z,17.97
2023-05-08T16:58:03.381Z,17.94
2023-05-08T17:00:31.145Z,17.72
2023-05-08T17:02:59.485Z,17.78
2023-05-08T17:05:29.399Z,17.89
2023-05-08T17:07:56.203Z,17.87
2023-05-08T17:10:23.134Z,17.79
2023-05-08T17:12:55.816Z,17.72
2023-05-08T17:15:22.614Z,17.73
2023-05-08T17:17:50.964Z,17.64
2023-05-08T17:20:18.783Z,17.67
2023-05-08T17:22:45.891Z,17.66
2023-05-08T17:25:13.146Z,17.70
2023-05-08T17:27:40.040Z,17.67
2023-05-08T17:30:08.873Z,17.65
2023-05-08T17:32:35.612Z,17.65
2023-05-08T17:35:03.014Z,17.66
2023-05-08T17:37:30.304Z,17.62
2023-05-08T17:39:57.019Z,17.55
2023-05-08T17:42:24.100Z,17.57
2023-05-08T17:44:51.148Z,17.50
2023-05-08T17:47:20.562Z,17.43
2023-05-08T17:49:47.512Z,17.52
2023-05-08T17:52:17.120Z,17.43
2023-05-08T17:54:46.500Z,17.39
2023-05-08T17:57:13.230Z,17.31
2023-05-08T17:59:40.127Z,17.19
2023-05-08T18:02:08.721Z,17.29
2023-05-08T18:04:37.006Z,17.20
2023-05-08T18:07:06.909Z,17.29
2023-05-08T18:09:33.562Z,17.29
2023-05-08T18:12:02.778Z,17.16
2023-05-08T18:14:32.083Z,17.08
2023-05-08T18:16:59.471Z,16.94
2023-05-08T18:19:26.885Z,16.85
2023-05-08T18:21:53.819Z,16.86
2023-05-08T18:24:20.902Z,16.98
2023-05-08T18:26:48.250Z,16.94
2023-05-08T18:29:15.583Z,16.94
2023-05-08T18:31:42.836Z,16.77
2023-05-08T18:34:09.610Z,16.82
2023-05-08T18:36:36.692Z,16.77
2023-05-08T18:39:05.475Z,16.68
2023-05-08T18:41:32.152Z,16.55
2023-05-08T18:44:03.425Z,16.46
2023-05-08T18:46:30.012Z,16.37
2023-05-08T18:48:56.636Z,16.30
2023-05-08T18:51:23.755Z,16.32
2023-05-08T18:53:50.967Z,16.33
2023-05-08T18:56:19.521Z,16.27
2023-05-08T18:58:47.804Z,16.22
2023-05-08T19:01:20.895Z,16.17
2023-05-08T19:03:48.546Z,15.97
2023-05-08T19:06:15.338Z,16.07
2023-05-08T19:08:42.177Z,16.05
2023-05-08T19:11:10.430Z,15.93
2023-05-08T19:13:39.986Z,15.97
2023-05-08T19:16:07.099Z,15.95
2023-05-08T19:18:33.744Z,15.95
2023-05-08T19:21:01.255Z,15.86
2023-05-08T19:23:30.989Z,15.85
2023-05-08T19:25:57.608Z,15.82
2023-05-08T19:28:25.374Z,15.79
2023-05-08T19:30:52.745Z,15.73
2023-05-08T19:33:22.799Z,15.68
2023-05-08T19:35:52.941Z,15.68
2023-05-08T19:38:20.850Z,15.68
2023-05-08T19:40:57.025Z,15.60
2023-05-08T19:43:27.828Z,15.43
2023-05-08T19:45:55.553Z,15.32
2023-05-08T19:48:22.561Z,15.30
2023-05-08T19:50:53.619Z,15.21
2023-05-08T19:53:21.612Z,15.18
2023-05-08T19:55:49.429Z,15.21
2023-05-08T19:58:17.589Z,15.23
2023-05-08T20:03:16.206Z,15.21
2023-05-08T20:05:42.896Z,15.18
2023-05-08T20:08:09.343Z,15.21
2023-05-08T20:10:36.090Z,15.17
2023-05-08T20:13:05.598Z,15.23
2023-05-08T20:15:32.127Z,15.18
2023-05-08T20:17:59.674Z,15.19
2023-05-08T20:20:27.284Z,15.16
2023-05-08T20:22:53.804Z,15.22
2023-05-08T20:25:20.623Z,15.10
2023-05-08T20:27:47.153Z,15.11
2023-05-08T20:30:14.202Z,15.11
2023-05-08T20:32:40.961Z,15.09
2023-05-08T20:35:08.046Z,15.09
2023-05-08T20:37:34.539Z,15.08
2023-05-08T20:40:02.084Z,15.09
2023-05-08T20:42:28.791Z,15.12
2023-05-08T20:44:55.366Z,15.11
2023-05-08T20:47:21.815Z,15.11
2023-05-08T20:49:48.321Z,15.10
2023-05-08T20:52:15.030Z,15.10
2023-05-08T20:54:44.406Z,15.09
2023-05-08T20:57:12.914Z,15.09
2023-05-08T20:59:39.651Z,15.08
2023-05-08T21:02:06.270Z,15.07
2023-05-08T21:04:32.801Z,15.08
2023-05-08T21:06:59.389Z,15.05
2023-05-08T21:09:26.045Z,15.09
2023-05-08T21:11:52.588Z,15.08
2023-05-08T21:14:19.517Z,15.07
2023-05-08T21:16:46.080Z,15.01
2023-05-08T21:19:17.252Z,15.03
2023-05-08T21:21:44.842Z,15.03
2023-05-08T21:24:11.593Z,14.99
2023-05-08T21:26:38.224Z,14.94
2023-05-08T21:29:05.129Z,14.92
2023-05-08T21:31:32.553Z,14.86
2023-05-08T21:33:59.113Z,14.75
2023-05-08T21:36:25.950Z,14.69
2023-05-08T21:38:52.701Z,14.70
2023-05-08T21:41:19.203Z,14.68
2023-05-08T21:43:45.966Z,14.64
2023-05-08T21:46:12.857Z,14.61
2023-05-08T21:48:39.344Z,14.59
2023-05-08T21:51:06.100Z,14.53
2023-05-08T21:53:32.737Z,14.49
2023-05-08T21:55:59.640Z,14.53
2023-05-08T21:58:26.637Z,14.51
2023-05-08T22:00:53.414Z,14.43
2023-05-08T22:03:20.016Z,14.43
2023-05-08T22:05:47.041Z,14.42
2023-05-08T22:08:13.796Z,14.40
2023-05-08T22:10:40.776Z,14.42
2023-05-08T22:13:07.789Z,14.38
2023-05-08T22:15:34.877Z,14.42
2023-05-08T22:18:02.966Z,14.39
2023-05-08T22:20:29.743Z,14.37
2023-05-08T22:22:56.292Z,14.27
2023-05-08T22:25:23.150Z,14.28
2023-05-08T22:27:49.597Z,14.25
2023-05-08T22:30:16.299Z,14.25
2023-05-08T22:32:42.885Z,14.22
2023-05-08T22:35:09.595Z,14.21
2023-05-08T22:37:37.049Z,14.20
2023-05-08T22:40:04.126Z,14.25
2023-05-08T22:42:30.954Z,14.21
2023-05-08T22:44:57.802Z,14.21
2023-05-08T22:47:25.918Z,14.22
2023-05-08T22:49:52.925Z,14.22
2023-05-08T22:52:19.462Z,14.21
2023-05-08T22:54:46.449Z,14.17
2023-05-08T22:57:14.455Z,14.18
2023-05-08T22:59:40.951Z,14.19
2023-05-08T23:02:07.489Z,14.17
2023-05-08T23:04:34.363Z,14.16
2023-05-08T23:07:02.895Z,14.10
2023-05-08T23:09:30.764Z,14.14
2023-05-08T23:11:57.327Z,14.14
2023-05-08T23:14:24.130Z,14.05
2023-05-08T23:16:50.828Z,14.15
2023-05-08T23:19:17.352Z,14.15
2023-05-08T23:21:43.832Z,14.15
2023-05-08T23:24:10.744Z,14.12
2023-05-08T23:26:37.604Z,14.12
2023-05-08T23:29:04.724Z,14.11
2023-05-08T23:31:31.320Z,14.06
2023-05-08T23:33:58.166Z,14.05
2023-05-08T23:36:24.725Z,14.14
2023-05-08T23:38:51.341Z,14.14
2023-05-08T23:41:18.068Z,14.10
2023-05-08T23:43:44.534Z,14.14
2023-05-08T23:46:11.591Z,14.12
2023-05-08T23:48:38.126Z,14.12
2023-05-08T23:51:04.905Z,14.13
2023-05-08T23:53:31.409Z,14.14
2023-05-08T23:55:58.041Z,14.16
2023-05-08T23:58:24.584Z,14.17
